sensor_id;sensor_type;location;lat;lon;timestamp;temperature;humidity
40630;DHT22;26329;40.388;-3.710;2022-12-18T00:00:05;11.20;82.70
40630;DHT22;26329;40.388;-3.710;2022-12-18T00:10:08;10.90;83.10
40630;DHT22;26329;40.388;-3.710;2022-12-18T00:20:12;10.90;83.40
40630;DHT22;26329;40.388;-3.710;2022-12-18T00:30:14;10.70;83.50
40630;DHT22;26329;40.388;-3.710;2022-12-18T00:40:16;10.60;83.60
40630;DHT22;26329;40.388;-3.710;2022-12-18T00:50:18;10.30;84.50
40630;DHT22;26329;40.388;-3.710;2022-12-18T01:00:20;10.10;85.10
40630;DHT22;26329;40.388;-3.710;2022-12-18T01:10:22;10.10;85.40
40630;DHT22;26329;40.388;-3.710;2022-12-18T01:20:25;9.90;85.70
40630;DHT22;26329;40.388;-3.710;2022-12-18T01:30:27;10.10;85.40
40630;DHT22;26329;40.388;-3.710;2022-12-18T01:40:29;10.00;85.70
40630;DHT22;26329;40.388;-3.710;2022-12-18T01:50:40;10.00;85.60
40630;DHT22;26329;40.388;-3.710;2022-12-18T02:00:43;9.90;86.40
40630;DHT22;26329;40.388;-3.710;2022-12-18T02:31:54;9.90;86.40
40630;DHT22;26329;40.388;-3.710;2022-12-18T02:42:04;9.80;85.80
40630;DHT22;26329;40.388;-3.710;2022-12-18T03:13:14;9.30;85.70
40630;DHT22;26329;40.388;-3.710;2022-12-18T03:23:21;9.50;85.70
40630;DHT22;26329;40.388;-3.710;2022-12-18T03:43:50;9.30;86.20
40630;DHT22;26329;40.388;-3.710;2022-12-18T03:54:00;9.40;86.30
40630;DHT22;26329;40.388;-3.710;2022-12-18T04:04:08;9.40;86.00
40630;DHT22;26329;40.388;-3.710;2022-12-18T04:14:13;9.30;85.90
40630;DHT22;26329;40.388;-3.710;2022-12-18T04:24:18;9.30;86.00
40630;DHT22;26329;40.388;-3.710;2022-12-18T04:34:23;9.40;85.90
40630;DHT22;26329;40.388;-3.710;2022-12-18T04:44:27;9.40;85.60
40630;DHT22;26329;40.388;-3.710;2022-12-18T04:54:30;9.30;85.60
40630;DHT22;26329;40.388;-3.710;2022-12-18T05:04:35;9.20;85.80
40630;DHT22;26329;40.388;-3.710;2022-12-18T05:14:38;9.30;86.00
40630;DHT22;26329;40.388;-3.710;2022-12-18T05:24:40;9.30;86.10
40630;DHT22;26329;40.388;-3.710;2022-12-18T05:34:42;9.30;86.00
40630;DHT22;26329;40.388;-3.710;2022-12-18T05:44:45;9.30;85.70
40630;DHT22;26329;40.388;-3.710;2022-12-18T05:54:49;9.40;86.00
40630;DHT22;26329;40.388;-3.710;2022-12-18T06:04:53;9.40;86.00
40630;DHT22;26329;40.388;-3.710;2022-12-18T06:14:57;9.40;86.00
40630;DHT22;26329;40.388;-3.710;2022-12-18T06:25:01;9.50;86.10
40630;DHT22;26329;40.388;-3.710;2022-12-18T06:35:22;9.40;86.00
40630;DHT22;26329;40.388;-3.710;2022-12-18T06:45:43;9.60;86.00
40630;DHT22;26329;40.388;-3.710;2022-12-18T06:56:06;9.60;84.90
40630;DHT22;26329;40.388;-3.710;2022-12-18T07:06:19;9.80;84.30
40630;DHT22;26329;40.388;-3.710;2022-12-18T07:16:25;9.60;83.60
40630;DHT22;26329;40.388;-3.710;2022-12-18T07:26:35;9.50;83.80
40630;DHT22;26329;40.388;-3.710;2022-12-18T07:36:39;9.60;83.80
40630;DHT22;26329;40.388;-3.710;2022-12-18T07:46:45;9.60;84.00
40630;DHT22;26329;40.388;-3.710;2022-12-18T07:56:52;9.70;83.80
40630;DHT22;26329;40.388;-3.710;2022-12-18T08:06:55;9.60;84.20
40630;DHT22;26329;40.388;-3.710;2022-12-18T08:16:58;9.70;84.10
40630;DHT22;26329;40.388;-3.710;2022-12-18T08:27:01;9.70;84.30
40630;DHT22;26329;40.388;-3.710;2022-12-18T08:37:03;9.60;84.20
40630;DHT22;26329;40.388;-3.710;2022-12-18T08:47:06;9.70;84.20
40630;DHT22;26329;40.388;-3.710;2022-12-18T08:57:08;9.60;84.30
40630;DHT22;26329;40.388;-3.710;2022-12-18T09:07:10;9.80;83.50
40630;DHT22;26329;40.388;-3.710;2022-12-18T09:17:11;9.80;83.60
40630;DHT22;26329;40.388;-3.710;2022-12-18T09:27:14;9.90;83.30
40630;DHT22;26329;40.388;-3.710;2022-12-18T09:37:17;9.90;83.30
40630;DHT22;26329;40.388;-3.710;2022-12-18T09:47:30;10.20;82.60
40630;DHT22;26329;40.388;-3.710;2022-12-18T09:57:37;10.20;83.10
40630;DHT22;26329;40.388;-3.710;2022-12-18T10:07:59;11.50;83.30
40630;DHT22;26329;40.388;-3.710;2022-12-18T10:28:44;11.60;77.00
40630;DHT22;26329;40.388;-3.710;2022-12-18T10:38:48;10.90;79.40
40630;DHT22;26329;40.388;-3.710;2022-12-18T10:48:54;10.90;79.80
40630;DHT22;26329;40.388;-3.710;2022-12-18T10:59:03;10.80;80.50
40630;DHT22;26329;40.388;-3.710;2022-12-18T11:09:20;11.00;79.70
40630;DHT22;26329;40.388;-3.710;2022-12-18T11:19:36;11.10;79.30
40630;DHT22;26329;40.388;-3.710;2022-12-18T11:29:39;11.10;79.30
40630;DHT22;26329;40.388;-3.710;2022-12-18T11:39:59;11.20;78.80
40630;DHT22;26329;40.388;-3.710;2022-12-18T11:50:09;11.40;78.20
40630;DHT22;26329;40.388;-3.710;2022-12-18T12:00:18;11.60;77.60
40630;DHT22;26329;40.388;-3.710;2022-12-18T12:31:22;11.90;73.90
40630;DHT22;26329;40.388;-3.710;2022-12-18T12:41:18;12.00;73.90
40630;DHT22;26329;40.388;-3.710;2022-12-18T12:51:43;12.10;73.50
40630;DHT22;26329;40.388;-3.710;2022-12-18T13:01:58;12.40;72.30
40630;DHT22;26329;40.388;-3.710;2022-12-18T13:12:04;12.30;72.10
40630;DHT22;26329;40.388;-3.710;2022-12-18T13:22:39;12.60;70.90
40630;DHT22;26329;40.388;-3.710;2022-12-18T13:32:42;12.50;70.50
40630;DHT22;26329;40.388;-3.710;2022-12-18T13:42:45;12.80;70.20
40630;DHT22;26329;40.388;-3.710;2022-12-18T13:53:05;14.30;67.40
40630;DHT22;26329;40.388;-3.710;2022-12-18T14:03:26;13.00;66.40
40630;DHT22;26329;40.388;-3.710;2022-12-18T14:13:35;12.80;67.50
40630;DHT22;26329;40.388;-3.710;2022-12-18T14:23:40;12.60;67.70
40630;DHT22;26329;40.388;-3.710;2022-12-18T14:33:42;12.60;68.40
40630;DHT22;26329;40.388;-3.710;2022-12-18T14:43:45;12.60;67.20
40630;DHT22;26329;40.388;-3.710;2022-12-18T14:54:03;12.60;67.10
40630;DHT22;26329;40.388;-3.710;2022-12-18T15:14:32;12.50;67.30
40630;DHT22;26329;40.388;-3.710;2022-12-18T15:24:35;12.50;67.20
40630;DHT22;26329;40.388;-3.710;2022-12-18T15:34:36;12.30;67.70
40630;DHT22;26329;40.388;-3.710;2022-12-18T15:44:38;12.30;67.50
40630;DHT22;26329;40.388;-3.710;2022-12-18T15:54:40;12.30;67.50
40630;DHT22;26329;40.388;-3.710;2022-12-18T16:05:00;12.30;67.40
40630;DHT22;26329;40.388;-3.710;2022-12-18T16:15:03;12.10;67.40
40630;DHT22;26329;40.388;-3.710;2022-12-18T16:25:05;12.20;70.00
40630;DHT22;26329;40.388;-3.710;2022-12-18T16:35:13;12.00;68.60
40630;DHT22;26329;40.388;-3.710;2022-12-18T16:45:17;11.90;69.20
40630;DHT22;26329;40.388;-3.710;2022-12-18T16:55:19;11.80;70.10
40630;DHT22;26329;40.388;-3.710;2022-12-18T17:05:21;11.80;70.20
40630;DHT22;26329;40.388;-3.710;2022-12-18T17:15:23;11.60;70.90
40630;DHT22;26329;40.388;-3.710;2022-12-18T17:25:24;11.50;70.90
40630;DHT22;26329;40.388;-3.710;2022-12-18T17:35:26;11.60;72.00
40630;DHT22;26329;40.388;-3.710;2022-12-18T17:45:27;11.80;71.50
40630;DHT22;26329;40.388;-3.710;2022-12-18T17:55:29;11.90;75.40
40630;DHT22;26329;40.388;-3.710;2022-12-18T18:05:31;11.80;71.40
40630;DHT22;26329;40.388;-3.710;2022-12-18T18:15:32;11.30;73.20
40630;DHT22;26329;40.388;-3.710;2022-12-18T18:25:37;11.20;73.90
40630;DHT22;26329;40.388;-3.710;2022-12-18T18:35:42;11.10;75.00
40630;DHT22;26329;40.388;-3.710;2022-12-18T18:45:45;11.10;75.40
40630;DHT22;26329;40.388;-3.710;2022-12-18T18:55:47;11.10;79.40
40630;DHT22;26329;40.388;-3.710;2022-12-18T19:05:57;10.90;76.00
40630;DHT22;26329;40.388;-3.710;2022-12-18T19:16:05;10.60;77.20
40630;DHT22;26329;40.388;-3.710;2022-12-18T19:26:10;10.40;77.60
40630;DHT22;26329;40.388;-3.710;2022-12-18T19:36:19;10.20;77.70
40630;DHT22;26329;40.388;-3.710;2022-12-18T19:46:22;10.10;78.00
40630;DHT22;26329;40.388;-3.710;2022-12-18T19:56:26;11.30;88.20
40630;DHT22;26329;40.388;-3.710;2022-12-18T20:06:33;11.00;78.50
40630;DHT22;26329;40.388;-3.710;2022-12-18T20:16:35;10.40;78.30
40630;DHT22;26329;40.388;-3.710;2022-12-18T20:26:36;9.90;77.80
40630;DHT22;26329;40.388;-3.710;2022-12-18T20:36:38;9.90;77.90
40630;DHT22;26329;40.388;-3.710;2022-12-18T20:46:42;9.60;78.50
40630;DHT22;26329;40.388;-3.710;2022-12-18T20:56:43;9.40;78.80
40630;DHT22;26329;40.388;-3.710;2022-12-18T21:06:46;9.30;79.10
40630;DHT22;26329;40.388;-3.710;2022-12-18T21:16:51;9.20;79.20
40630;DHT22;26329;40.388;-3.710;2022-12-18T21:26:56;9.10;79.30
40630;DHT22;26329;40.388;-3.710;2022-12-18T21:36:59;9.00;79.20
40630;DHT22;26329;40.388;-3.710;2022-12-18T21:47:02;8.90;79.40
40630;DHT22;26329;40.388;-3.710;2022-12-18T21:57:05;8.90;79.40
40630;DHT22;26329;40.388;-3.710;2022-12-18T22:07:09;8.80;79.60
40630;DHT22;26329;40.388;-3.710;2022-12-18T22:17:13;8.80;79.80
40630;DHT22;26329;40.388;-3.710;2022-12-18T22:27:15;8.80;79.60
40630;DHT22;26329;40.388;-3.710;2022-12-18T22:37:17;8.70;79.80
40630;DHT22;26329;40.388;-3.710;2022-12-18T22:47:19;8.80;79.80
40630;DHT22;26329;40.388;-3.710;2022-12-18T22:57:21;8.70;79.70
40630;DHT22;26329;40.388;-3.710;2022-12-18T23:07:24;8.60;79.80
40630;DHT22;26329;40.388;-3.710;2022-12-18T23:17:27;8.60;79.80
40630;DHT22;26329;40.388;-3.710;2022-12-18T23:27:30;8.60;79.90
40630;DHT22;26329;40.388;-3.710;2022-12-18T23:37:35;8.50;80.00
40630;DHT22;26329;40.388;-3.710;2022-12-18T23:47:37;8.40;80.20
40630;DHT22;26329;40.388;-3.710;2022-12-18T23:57:39;8.40;80.20
